createdAt,value
2023-05-02T00:12:41.952Z,19.07
2023-05-02T00:27:44.181Z,19.04
2023-05-02T00:42:45.854Z,19.03
2023-05-02T00:57:47.919Z,19.00
2023-05-02T01:12:55.474Z,18.98
2023-05-02T01:28:06.336Z,18.97
2023-05-02T01:43:09.436Z,18.93
2023-05-02T01:58:12.716Z,18.92
2023-05-02T02:13:26.150Z,18.92
2023-05-02T02:28:28.184Z,18.89
2023-05-02T02:43:41.175Z,18.87
2023-05-02T02:59:09.168Z,18.85
2023-05-02T03:14:11.051Z,18.84
2023-05-02T03:29:12.724Z,18.82
2023-05-02T03:44:14.378Z,18.79
2023-05-02T03:59:16.151Z,18.78
2023-05-02T04:14:18.507Z,18.76
2023-05-02T04:29:20.174Z,18.74
2023-05-02T04:44:21.811Z,18.73
2023-05-02T04:59:23.470Z,18.72
2023-05-02T05:14:25.169Z,18.71
2023-05-02T05:29:26.837Z,18.69
2023-05-02T05:44:28.560Z,18.68
2023-05-02T05:59:30.221Z,18.68
2023-05-02T06:14:31.875Z,18.68
2023-05-02T06:29:33.840Z,18.65
2023-05-02T06:44:35.606Z,18.64
2023-05-02T06:59:37.338Z,18.63
2023-05-02T07:14:39.006Z,18.63
2023-05-02T07:29:40.768Z,18.65
2023-05-02T07:44:42.466Z,18.61
2023-05-02T07:59:44.268Z,18.63
2023-05-02T08:14:45.968Z,18.69
2023-05-02T08:29:47.766Z,18.74
2023-05-02T08:44:49.925Z,18.75
2023-05-02T08:59:51.987Z,18.74
2023-05-02T09:15:12.774Z,18.75
2023-05-02T09:30:26.783Z,18.71
2023-05-02T09:45:28.573Z,18.70
2023-05-02T10:00:44.475Z,18.72
2023-05-02T10:15:49.379Z,18.72
2023-05-02T10:30:52.006Z,18.76
2023-05-02T10:45:54.291Z,18.76
2023-05-02T11:01:30.840Z,18.77
2023-05-02T11:17:03.653Z,18.76
2023-05-02T11:32:05.537Z,18.75
2023-05-02T11:47:08.053Z,18.77
2023-05-02T12:02:09.718Z,18.80
2023-05-02T12:17:11.576Z,18.82
2023-05-02T12:32:14.586Z,18.86
2023-05-02T12:47:17.223Z,18.87
2023-05-02T13:02:19.316Z,18.86
2023-05-02T13:17:21.070Z,18.87
2023-05-02T13:32:23.089Z,18.86
2023-05-02T13:47:24.801Z,18.87
2023-05-02T14:02:26.580Z,18.82
2023-05-02T14:17:28.362Z,18.86
2023-05-02T14:32:30.262Z,18.88
2023-05-02T14:47:32.122Z,18.87
2023-05-02T15:02:34.945Z,18.87
2023-05-02T15:17:36.675Z,18.86
2023-05-02T15:32:38.421Z,18.86
2023-05-02T15:47:40.620Z,18.85
2023-05-02T16:02:42.863Z,18.84
2023-05-02T16:17:44.949Z,18.81
2023-05-02T16:32:46.709Z,18.82
2023-05-02T16:47:48.480Z,18.80
2023-05-02T17:02:50.350Z,18.76
2023-05-02T17:17:52.457Z,18.72
2023-05-02T17:32:54.262Z,18.67
2023-05-02T17:47:56.181Z,18.63
2023-05-02T18:02:58.047Z,18.62
2023-05-02T18:17:59.731Z,18.59
2023-05-02T18:33:01.552Z,18.56
2023-05-02T18:48:03.666Z,18.53
2023-05-02T19:03:05.554Z,18.52
2023-05-02T19:18:07.355Z,18.48
2023-05-02T19:33:09.225Z,18.47
2023-05-02T19:48:12.155Z,18.45
2023-05-02T20:03:14.661Z,18.42
2023-05-02T20:18:16.536Z,18.41
2023-05-02T20:33:18.411Z,18.38
2023-05-02T20:48:20.267Z,18.35
2023-05-02T21:03:22.233Z,18.32
2023-05-02T21:18:23.969Z,18.30
2023-05-02T21:33:25.624Z,18.27
2023-05-02T21:48:27.609Z,18.24
2023-05-02T22:03:29.303Z,18.21
2023-05-02T22:18:31.293Z,18.19
2023-05-02T22:33:33.112Z,18.17
2023-05-02T22:48:34.805Z,18.13
2023-05-02T23:03:36.612Z,18.10
2023-05-02T23:18:38.843Z,18.08
2023-05-02T23:33:40.531Z,18.05
2023-05-02T23:48:42.242Z,18.02
